sensor_id;sensor_type;location;lat;lon;timestamp;P1;durP1;ratioP1;P2;durP2;ratioP2
22650;SDS011;11492;42.646;23.400;2023-03-16T00:00:38;0.90;;;0.70;;
22650;SDS011;11492;42.646;23.400;2023-03-16T00:03:04;0.63;;;0.60;;
22650;SDS011;11492;42.646;23.400;2023-03-16T00:05:30;1.17;;;0.70;;
22650;SDS011;11492;42.646;23.400;2023-03-16T00:07:56;0.88;;;0.68;;
22650;SDS011;11492;42.646;23.400;2023-03-16T00:10:21;0.57;;;0.57;;
22650;SDS011;11492;42.646;23.400;2023-03-16T00:12:51;0.50;;;0.50;;
22650;SDS011;11492;42.646;23.400;2023-03-16T00:15:20;0.60;;;0.60;;
22650;SDS011;11492;42.646;23.400;2023-03-16T00:17:45;1.33;;;0.70;;
22650;SDS011;11492;42.646;23.400;2023-03-16T00:20:13;0.80;;;0.80;;
22650;SDS011;11492;42.646;23.400;2023-03-16T00:22:40;0.70;;;0.70;;
22650;SDS011;11492;42.646;23.400;2023-03-16T00:25:06;0.80;;;0.80;;
22650;SDS011;11492;42.646;23.400;2023-03-16T00:27:34;1.23;;;0.63;;
22650;SDS011;11492;42.646;23.400;2023-03-16T00:29:59;0.60;;;0.60;;
22650;SDS011;11492;42.646;23.400;2023-03-16T00:32:28;0.70;;;0.70;;
22650;SDS011;11492;42.646;23.400;2023-03-16T00:34:58;1.00;;;0.73;;
22650;SDS011;11492;42.646;23.400;2023-03-16T00:37:26;0.88;;;0.75;;
22650;SDS011;11492;42.646;23.400;2023-03-16T00:39:53;0.60;;;0.60;;
22650;SDS011;11492;42.646;23.400;2023-03-16T00:42:22;0.70;;;0.70;;
22650;SDS011;11492;42.646;23.400;2023-03-16T00:44:53;0.70;;;0.70;;
22650;SDS011;11492;42.646;23.400;2023-03-16T00:47:22;0.68;;;0.68;;
22650;SDS011;11492;42.646;23.400;2023-03-16T00:49:48;1.02;;;0.82;;
22650;SDS011;11492;42.646;23.400;2023-03-16T00:52:13;0.65;;;0.65;;
22650;SDS011;11492;42.646;23.400;2023-03-16T00:54:40;0.60;;;0.60;;
22650;SDS011;11492;42.646;23.400;2023-03-16T00:57:10;0.65;;;0.65;;
22650;SDS011;11492;42.646;23.400;2023-03-16T00:59:37;0.80;;;0.80;;
22650;SDS011;11492;42.646;23.400;2023-03-16T01:02:04;0.80;;;0.80;;
22650;SDS011;11492;42.646;23.400;2023-03-16T01:04:31;0.80;;;0.70;;
22650;SDS011;11492;42.646;23.400;2023-03-16T01:06:58;1.10;;;1.00;;
22650;SDS011;11492;42.646;23.400;2023-03-16T01:09:24;0.70;;;0.70;;
22650;SDS011;11492;42.646;23.400;2023-03-16T01:11:49;0.70;;;0.70;;
22650;SDS011;11492;42.646;23.400;2023-03-16T01:14:17;0.73;;;0.73;;
22650;SDS011;11492;42.646;23.400;2023-03-16T01:16:43;1.00;;;0.90;;
22650;SDS011;11492;42.646;23.400;2023-03-16T01:19:10;1.13;;;0.80;;
22650;SDS011;11492;42.646;23.400;2023-03-16T01:21:37;0.85;;;0.82;;
22650;SDS011;11492;42.646;23.400;2023-03-16T01:24:06;0.80;;;0.80;;
22650;SDS011;11492;42.646;23.400;2023-03-16T01:26:32;0.93;;;0.90;;
22650;SDS011;11492;42.646;23.400;2023-03-16T01:28:58;1.50;;;0.73;;
22650;SDS011;11492;42.646;23.400;2023-03-16T01:31:23;1.35;;;0.77;;
22650;SDS011;11492;42.646;23.400;2023-03-16T01:33:49;1.17;;;0.90;;
22650;SDS011;11492;42.646;23.400;2023-03-16T01:36:16;0.80;;;0.80;;
22650;SDS011;11492;42.646;23.400;2023-03-16T01:38:42;1.33;;;1.10;;
22650;SDS011;11492;42.646;23.400;2023-03-16T01:41:08;1.08;;;1.00;;
22650;SDS011;11492;42.646;23.400;2023-03-16T01:43:35;1.17;;;1.02;;
22650;SDS011;11492;42.646;23.400;2023-03-16T01:48:35;1.00;;;0.90;;
22650;SDS011;11492;42.646;23.400;2023-03-16T01:51:04;1.80;;;0.88;;
22650;SDS011;11492;42.646;23.400;2023-03-16T01:53:33;1.25;;;0.95;;
22650;SDS011;11492;42.646;23.400;2023-03-16T01:56:00;1.60;;;0.90;;
22650;SDS011;11492;42.646;23.400;2023-03-16T01:58:29;1.30;;;0.90;;
22650;SDS011;11492;42.646;23.400;2023-03-16T02:00:56;0.90;;;0.90;;
22650;SDS011;11492;42.646;23.400;2023-03-16T02:03:22;1.55;;;0.90;;
22650;SDS011;11492;42.646;23.400;2023-03-16T02:06:23;0.90;;;0.80;;
22650;SDS011;11492;42.646;23.400;2023-03-16T02:08:43;0.60;;;0.60;;
22650;SDS011;11492;42.646;23.400;2023-03-16T02:11:11;2.70;;;0.90;;
22650;SDS011;11492;42.646;23.400;2023-03-16T02:13:42;0.70;;;0.70;;
22650;SDS011;11492;42.646;23.400;2023-03-16T02:16:09;0.80;;;0.80;;
22650;SDS011;11492;42.646;23.400;2023-03-16T02:18:37;0.73;;;0.73;;
22650;SDS011;11492;42.646;23.400;2023-03-16T02:21:10;0.90;;;0.88;;
22650;SDS011;11492;42.646;23.400;2023-03-16T02:23:43;0.63;;;0.63;;
22650;SDS011;11492;42.646;23.400;2023-03-16T02:26:21;0.80;;;0.80;;
22650;SDS011;11492;42.646;23.400;2023-03-16T02:31:19;1.70;;;0.93;;
22650;SDS011;11492;42.646;23.400;2023-03-16T02:33:46;0.63;;;0.63;;
22650;SDS011;11492;42.646;23.400;2023-03-16T02:36:14;0.90;;;0.77;;
22650;SDS011;11492;42.646;23.400;2023-03-16T02:38:39;1.02;;;0.80;;
22650;SDS011;11492;42.646;23.400;2023-03-16T02:43:45;0.93;;;0.80;;
22650;SDS011;11492;42.646;23.400;2023-03-16T02:46:16;1.20;;;0.70;;
22650;SDS011;11492;42.646;23.400;2023-03-16T02:48:48;0.90;;;0.88;;
22650;SDS011;11492;42.646;23.400;2023-03-16T02:51:19;0.70;;;0.70;;
22650;SDS011;11492;42.646;23.400;2023-03-16T02:53:45;0.65;;;0.65;;
22650;SDS011;11492;42.646;23.400;2023-03-16T02:56:10;0.98;;;0.88;;
22650;SDS011;11492;42.646;23.400;2023-03-16T02:58:36;3.13;;;0.90;;
22650;SDS011;11492;42.646;23.400;2023-03-16T03:01:01;0.77;;;0.70;;
22650;SDS011;11492;42.646;23.400;2023-03-16T03:03:27;0.75;;;0.75;;
22650;SDS011;11492;42.646;23.400;2023-03-16T03:05:53;0.70;;;0.70;;
22650;SDS011;11492;42.646;23.400;2023-03-16T03:08:18;1.10;;;1.00;;
22650;SDS011;11492;42.646;23.400;2023-03-16T03:10:47;0.80;;;0.80;;
22650;SDS011;11492;42.646;23.400;2023-03-16T03:13:13;1.00;;;0.90;;
22650;SDS011;11492;42.646;23.400;2023-03-16T03:15:39;0.98;;;0.88;;
22650;SDS011;11492;42.646;23.400;2023-03-16T03:18:05;0.70;;;0.70;;
22650;SDS011;11492;42.646;23.400;2023-03-16T03:20:31;1.35;;;0.80;;
22650;SDS011;11492;42.646;23.400;2023-03-16T03:22:56;0.80;;;0.80;;
22650;SDS011;11492;42.646;23.400;2023-03-16T03:25:22;2.88;;;0.80;;
22650;SDS011;11492;42.646;23.400;2023-03-16T03:27:48;0.82;;;0.80;;
22650;SDS011;11492;42.646;23.400;2023-03-16T03:30:18;1.95;;;0.85;;
22650;SDS011;11492;42.646;23.400;2023-03-16T03:32:44;1.02;;;0.70;;
22650;SDS011;11492;42.646;23.400;2023-03-16T03:35:11;2.17;;;0.85;;
22650;SDS011;11492;42.646;23.400;2023-03-16T03:37:39;1.00;;;0.90;;
22650;SDS011;11492;42.646;23.400;2023-03-16T03:40:05;0.85;;;0.77;;
22650;SDS011;11492;42.646;23.400;2023-03-16T03:42:31;0.80;;;0.80;;
22650;SDS011;11492;42.646;23.400;2023-03-16T03:44:57;1.00;;;0.90;;
22650;SDS011;11492;42.646;23.400;2023-03-16T03:47:22;0.70;;;0.70;;
22650;SDS011;11492;42.646;23.400;2023-03-16T03:49:48;1.05;;;0.80;;
22650;SDS011;11492;42.646;23.400;2023-03-16T03:52:13;1.00;;;0.90;;
22650;SDS011;11492;42.646;23.400;2023-03-16T03:54:38;0.80;;;0.80;;
22650;SDS011;11492;42.646;23.400;2023-03-16T03:57:04;0.85;;;0.85;;
22650;SDS011;11492;42.646;23.400;2023-03-16T03:59:30;2.75;;;0.80;;
22650;SDS011;11492;42.646;23.400;2023-03-16T04:01:55;0.70;;;0.70;;
22650;SDS011;11492;42.646;23.400;2023-03-16T04:04:21;2.10;;;0.93;;
22650;SDS011;11492;42.646;23.400;2023-03-16T04:06:46;0.90;;;0.75;;
22650;SDS011;11492;42.646;23.400;2023-03-16T04:09:12;0.75;;;0.75;;
22650;SDS011;11492;42.646;23.400;2023-03-16T04:11:38;0.75;;;0.75;;
22650;SDS011;11492;42.646;23.400;2023-03-16T04:14:04;0.57;;;0.57;;
22650;SDS011;11492;42.646;23.400;2023-03-16T04:16:30;1.58;;;0.80;;
22650;SDS011;11492;42.646;23.400;2023-03-16T04:18:55;0.60;;;0.60;;
22650;SDS011;11492;42.646;23.400;2023-03-16T04:21:21;0.65;;;0.55;;
22650;SDS011;11492;42.646;23.400;2023-03-16T04:23:48;0.75;;;0.73;;
22650;SDS011;11492;42.646;23.400;2023-03-16T04:26:18;2.45;;;0.75;;
22650;SDS011;11492;42.646;23.400;2023-03-16T04:28:44;1.15;;;0.80;;
22650;SDS011;11492;42.646;23.400;2023-03-16T04:31:10;9.40;;;0.88;;
22650;SDS011;11492;42.646;23.400;2023-03-16T04:33:36;2.63;;;1.70;;
22650;SDS011;11492;42.646;23.400;2023-03-16T04:36:03;1.95;;;1.23;;
22650;SDS011;11492;42.646;23.400;2023-03-16T04:38:30;2.80;;;1.85;;
22650;SDS011;11492;42.646;23.400;2023-03-16T04:41:03;7.13;;;3.35;;
22650;SDS011;11492;42.646;23.400;2023-03-16T04:43:29;2.80;;;0.90;;
22650;SDS011;11492;42.646;23.400;2023-03-16T04:45:58;0.70;;;0.70;;
22650;SDS011;11492;42.646;23.400;2023-03-16T04:48:25;1.20;;;0.80;;
22650;SDS011;11492;42.646;23.400;2023-03-16T04:50:52;2.85;;;1.00;;
22650;SDS011;11492;42.646;23.400;2023-03-16T04:53:17;23.88;;;11.48;;
22650;SDS011;11492;42.646;23.400;2023-03-16T04:55:43;0.82;;;0.80;;
22650;SDS011;11492;42.646;23.400;2023-03-16T04:58:10;0.70;;;0.60;;
22650;SDS011;11492;42.646;23.400;2023-03-16T05:00:37;3.08;;;0.80;;
22650;SDS011;11492;42.646;23.400;2023-03-16T05:03:04;1.98;;;0.90;;
22650;SDS011;11492;42.646;23.400;2023-03-16T05:05:30;2.58;;;0.80;;
22650;SDS011;11492;42.646;23.400;2023-03-16T05:07:56;0.95;;;0.80;;
22650;SDS011;11492;42.646;23.400;2023-03-16T05:10:21;2.22;;;0.80;;
22650;SDS011;11492;42.646;23.400;2023-03-16T05:12:47;1.58;;;0.80;;
22650;SDS011;11492;42.646;23.400;2023-03-16T05:15:12;1.98;;;0.93;;
22650;SDS011;11492;42.646;23.400;2023-03-16T05:17:38;1.42;;;1.00;;
22650;SDS011;11492;42.646;23.400;2023-03-16T05:20:06;1.02;;;0.90;;
22650;SDS011;11492;42.646;23.400;2023-03-16T05:22:33;1.13;;;0.82;;
22650;SDS011;11492;42.646;23.400;2023-03-16T05:25:01;1.50;;;1.08;;
22650;SDS011;11492;42.646;23.400;2023-03-16T05:27:29;1.50;;;1.10;;
22650;SDS011;11492;42.646;23.400;2023-03-16T05:29:54;2.45;;;0.93;;
22650;SDS011;11492;42.646;23.400;2023-03-16T05:32:20;1.10;;;0.60;;
22650;SDS011;11492;42.646;23.400;2023-03-16T05:34:46;0.70;;;0.70;;
22650;SDS011;11492;42.646;23.400;2023-03-16T05:37:11;0.93;;;0.85;;
22650;SDS011;11492;42.646;23.400;2023-03-16T05:39:37;4.32;;;1.02;;
22650;SDS011;11492;42.646;23.400;2023-03-16T05:42:02;1.30;;;1.00;;
22650;SDS011;11492;42.646;23.400;2023-03-16T05:44:29;2.88;;;1.05;;
22650;SDS011;11492;42.646;23.400;2023-03-16T05:46:56;2.65;;;1.13;;
22650;SDS011;11492;42.646;23.400;2023-03-16T05:49:21;6.50;;;1.00;;
22650;SDS011;11492;42.646;23.400;2023-03-16T05:51:47;3.42;;;1.10;;
22650;SDS011;11492;42.646;23.400;2023-03-16T05:54:14;1.30;;;1.00;;
22650;SDS011;11492;42.646;23.400;2023-03-16T05:56:40;1.77;;;1.10;;
22650;SDS011;11492;42.646;23.400;2023-03-16T05:59:05;2.10;;;1.25;;
22650;SDS011;11492;42.646;23.400;2023-03-16T06:01:30;3.45;;;1.50;;
22650;SDS011;11492;42.646;23.400;2023-03-16T06:03:58;2.03;;;1.20;;
22650;SDS011;11492;42.646;23.400;2023-03-16T06:06:23;3.92;;;1.00;;
22650;SDS011;11492;42.646;23.400;2023-03-16T06:08:48;1.73;;;1.10;;
22650;SDS011;11492;42.646;23.400;2023-03-16T06:11:14;1.10;;;1.00;;
22650;SDS011;11492;42.646;23.400;2023-03-16T06:13:40;3.30;;;1.25;;
22650;SDS011;11492;42.646;23.400;2023-03-16T06:16:05;1.27;;;1.10;;
22650;SDS011;11492;42.646;23.400;2023-03-16T06:18:32;3.13;;;1.00;;
22650;SDS011;11492;42.646;23.400;2023-03-16T06:20:58;1.90;;;1.30;;
22650;SDS011;11492;42.646;23.400;2023-03-16T06:23:24;1.45;;;1.15;;
22650;SDS011;11492;42.646;23.400;2023-03-16T06:25:50;1.45;;;1.13;;
22650;SDS011;11492;42.646;23.400;2023-03-16T06:28:18;3.00;;;1.42;;
22650;SDS011;11492;42.646;23.400;2023-03-16T06:30:44;2.60;;;1.20;;
22650;SDS011;11492;42.646;23.400;2023-03-16T06:33:09;1.85;;;1.35;;
22650;SDS011;11492;42.646;23.400;2023-03-16T06:35:35;2.72;;;1.38;;
22650;SDS011;11492;42.646;23.400;2023-03-16T06:38:02;1.80;;;1.30;;
22650;SDS011;11492;42.646;23.400;2023-03-16T06:40:28;2.00;;;1.40;;
22650;SDS011;11492;42.646;23.400;2023-03-16T06:42:53;3.17;;;1.48;;
22650;SDS011;11492;42.646;23.400;2023-03-16T06:45:19;2.95;;;1.40;;
22650;SDS011;11492;42.646;23.400;2023-03-16T06:47:49;2.78;;;1.20;;
22650;SDS011;11492;42.646;23.400;2023-03-16T06:50:15;2.70;;;1.30;;
22650;SDS011;11492;42.646;23.400;2023-03-16T06:52:40;4.90;;;1.27;;
22650;SDS011;11492;42.646;23.400;2023-03-16T06:55:06;4.45;;;1.45;;
22650;SDS011;11492;42.646;23.400;2023-03-16T06:57:33;5.72;;;1.30;;
22650;SDS011;11492;42.646;23.400;2023-03-16T06:59:58;2.53;;;1.13;;
22650;SDS011;11492;42.646;23.400;2023-03-16T07:02:24;1.25;;;1.10;;
22650;SDS011;11492;42.646;23.400;2023-03-16T07:04:49;1.30;;;1.20;;
22650;SDS011;11492;42.646;23.400;2023-03-16T07:07:15;2.45;;;1.30;;
22650;SDS011;11492;42.646;23.400;2023-03-16T07:09:41;5.18;;;1.40;;
22650;SDS011;11492;42.646;23.400;2023-03-16T07:12:07;4.25;;;1.40;;
22650;SDS011;11492;42.646;23.400;2023-03-16T07:14:33;3.95;;;1.50;;
22650;SDS011;11492;42.646;23.400;2023-03-16T07:16:58;4.47;;;1.33;;
22650;SDS011;11492;42.646;23.400;2023-03-16T07:19:24;2.40;;;1.15;;
22650;SDS011;11492;42.646;23.400;2023-03-16T07:21:49;12.48;;;6.68;;
22650;SDS011;11492;42.646;23.400;2023-03-16T07:24:15;1.73;;;1.40;;
22650;SDS011;11492;42.646;23.400;2023-03-16T07:26:41;1.50;;;1.17;;
22650;SDS011;11492;42.646;23.400;2023-03-16T07:29:07;3.35;;;1.27;;
22650;SDS011;11492;42.646;23.400;2023-03-16T07:31:34;2.15;;;1.40;;
22650;SDS011;11492;42.646;23.400;2023-03-16T07:34:00;3.17;;;1.73;;
22650;SDS011;11492;42.646;23.400;2023-03-16T07:36:26;2.30;;;1.45;;
22650;SDS011;11492;42.646;23.400;2023-03-16T07:38:52;2.33;;;1.40;;
22650;SDS011;11492;42.646;23.400;2023-03-16T07:41:17;3.28;;;1.70;;
22650;SDS011;11492;42.646;23.400;2023-03-16T07:43:43;1.92;;;1.48;;
22650;SDS011;11492;42.646;23.400;2023-03-16T07:46:12;3.33;;;1.67;;
22650;SDS011;11492;42.646;23.400;2023-03-16T07:48:41;10.40;;;1.75;;
22650;SDS011;11492;42.646;23.400;2023-03-16T07:51:12;2.22;;;1.50;;
22650;SDS011;11492;42.646;23.400;2023-03-16T07:53:38;10.05;;;5.68;;
22650;SDS011;11492;42.646;23.400;2023-03-16T07:56:04;7.95;;;3.67;;
22650;SDS011;11492;42.646;23.400;2023-03-16T07:58:30;2.97;;;1.50;;
22650;SDS011;11492;42.646;23.400;2023-03-16T08:00:56;2.42;;;1.60;;
22650;SDS011;11492;42.646;23.400;2023-03-16T08:03:23;4.25;;;1.52;;
22650;SDS011;11492;42.646;23.400;2023-03-16T08:05:49;2.42;;;1.60;;
22650;SDS011;11492;42.646;23.400;2023-03-16T08:08:16;3.08;;;1.65;;
22650;SDS011;11492;42.646;23.400;2023-03-16T08:10:41;3.35;;;2.00;;
22650;SDS011;11492;42.646;23.400;2023-03-16T08:13:07;8.65;;;1.80;;
22650;SDS011;11492;42.646;23.400;2023-03-16T08:15:33;2.60;;;1.70;;
22650;SDS011;11492;42.646;23.400;2023-03-16T08:17:59;2.22;;;1.50;;
22650;SDS011;11492;42.646;23.400;2023-03-16T08:20:28;2.58;;;1.50;;
22650;SDS011;11492;42.646;23.400;2023-03-16T08:22:54;2.72;;;1.38;;
22650;SDS011;11492;42.646;23.400;2023-03-16T08:25:19;1.35;;;0.98;;
22650;SDS011;11492;42.646;23.400;2023-03-16T08:27:45;2.67;;;1.60;;
22650;SDS011;11492;42.646;23.400;2023-03-16T08:30:13;2.83;;;1.60;;
22650;SDS011;11492;42.646;23.400;2023-03-16T08:32:40;3.35;;;1.58;;
22650;SDS011;11492;42.646;23.400;2023-03-16T08:35:06;1.83;;;1.30;;
22650;SDS011;11492;42.646;23.400;2023-03-16T08:37:33;4.22;;;1.55;;
22650;SDS011;11492;42.646;23.400;2023-03-16T08:39:59;1.58;;;1.38;;
22650;SDS011;11492;42.646;23.400;2023-03-16T08:42:25;2.03;;;1.30;;
22650;SDS011;11492;42.646;23.400;2023-03-16T08:44:50;2.75;;;1.50;;
22650;SDS011;11492;42.646;23.400;2023-03-16T08:47:19;5.40;;;1.80;;
22650;SDS011;11492;42.646;23.400;2023-03-16T08:49:45;2.17;;;1.40;;
22650;SDS011;11492;42.646;23.400;2023-03-16T08:52:11;3.67;;;1.70;;
22650;SDS011;11492;42.646;23.400;2023-03-16T08:54:37;2.05;;;1.48;;
22650;SDS011;11492;42.646;23.400;2023-03-16T08:57:03;3.13;;;1.80;;
22650;SDS011;11492;42.646;23.400;2023-03-16T08:59:29;1.92;;;1.30;;
22650;SDS011;11492;42.646;23.400;2023-03-16T09:01:54;2.40;;;1.48;;
22650;SDS011;11492;42.646;23.400;2023-03-16T09:04:20;2.08;;;1.50;;
22650;SDS011;11492;42.646;23.400;2023-03-16T09:06:45;4.50;;;1.48;;
22650;SDS011;11492;42.646;23.400;2023-03-16T09:09:11;2.35;;;1.40;;
22650;SDS011;11492;42.646;23.400;2023-03-16T09:11:37;1.95;;;1.40;;
22650;SDS011;11492;42.646;23.400;2023-03-16T09:14:02;2.22;;;1.70;;
22650;SDS011;11492;42.646;23.400;2023-03-16T09:16:28;5.38;;;2.13;;
22650;SDS011;11492;42.646;23.400;2023-03-16T09:18:55;2.55;;;1.60;;
22650;SDS011;11492;42.646;23.400;2023-03-16T09:21:20;3.13;;;1.60;;
22650;SDS011;11492;42.646;23.400;2023-03-16T09:23:46;2.97;;;1.70;;
22650;SDS011;11492;42.646;23.400;2023-03-16T09:26:11;2.83;;;1.73;;
22650;SDS011;11492;42.646;23.400;2023-03-16T09:28:37;2.55;;;1.60;;
22650;SDS011;11492;42.646;23.400;2023-03-16T09:31:05;3.92;;;1.63;;
22650;SDS011;11492;42.646;23.400;2023-03-16T09:33:32;3.90;;;1.65;;
22650;SDS011;11492;42.646;23.400;2023-03-16T09:35:58;3.63;;;1.73;;
22650;SDS011;11492;42.646;23.400;2023-03-16T09:38:24;4.07;;;1.90;;
22650;SDS011;11492;42.646;23.400;2023-03-16T09:41:37;5.85;;;1.90;;
22650;SDS011;11492;42.646;23.400;2023-03-16T09:46:40;23.45;;;12.18;;
22650;SDS011;11492;42.646;23.400;2023-03-16T09:49:09;5.60;;;2.25;;
22650;SDS011;11492;42.646;23.400;2023-03-16T09:51:57;3.58;;;1.85;;
22650;SDS011;11492;42.646;23.400;2023-03-16T09:54:52;3.03;;;1.67;;
22650;SDS011;11492;42.646;23.400;2023-03-16T09:57:30;2.25;;;1.30;;
22650;SDS011;11492;42.646;23.400;2023-03-16T10:00:05;4.55;;;1.50;;
22650;SDS011;11492;42.646;23.400;2023-03-16T10:05:16;2.10;;;1.73;;
22650;SDS011;11492;42.646;23.400;2023-03-16T10:13:22;3.28;;;1.98;;
22650;SDS011;11492;42.646;23.400;2023-03-16T10:15:51;3.38;;;2.30;;
22650;SDS011;11492;42.646;23.400;2023-03-16T10:18:19;2.72;;;2.38;;
22650;SDS011;11492;42.646;23.400;2023-03-16T10:20:50;3.95;;;2.55;;
22650;SDS011;11492;42.646;23.400;2023-03-16T10:23:19;3.50;;;2.38;;
22650;SDS011;11492;42.646;23.400;2023-03-16T10:25:48;3.78;;;2.40;;
22650;SDS011;11492;42.646;23.400;2023-03-16T10:28:23;3.80;;;2.50;;
22650;SDS011;11492;42.646;23.400;2023-03-16T10:30:51;5.93;;;2.50;;
22650;SDS011;11492;42.646;23.400;2023-03-16T10:33:23;4.43;;;2.83;;
22650;SDS011;11492;42.646;23.400;2023-03-16T10:38:26;3.58;;;2.13;;
22650;SDS011;11492;42.646;23.400;2023-03-16T10:43:42;3.20;;;2.30;;
22650;SDS011;11492;42.646;23.400;2023-03-16T10:46:09;3.58;;;2.80;;
22650;SDS011;11492;42.646;23.400;2023-03-16T10:48:36;3.72;;;2.55;;
22650;SDS011;11492;42.646;23.400;2023-03-16T10:51:03;24.23;;;12.05;;
22650;SDS011;11492;42.646;23.400;2023-03-16T10:53:34;14.02;;;4.22;;
22650;SDS011;11492;42.646;23.400;2023-03-16T10:56:07;4.07;;;3.05;;
22650;SDS011;11492;42.646;23.400;2023-03-16T10:58:38;5.13;;;3.63;;
22650;SDS011;11492;42.646;23.400;2023-03-16T11:01:25;4.13;;;2.38;;
22650;SDS011;11492;42.646;23.400;2023-03-16T11:03:53;3.05;;;2.40;;
22650;SDS011;11492;42.646;23.400;2023-03-16T11:06:22;2.38;;;1.90;;
22650;SDS011;11492;42.646;23.400;2023-03-16T11:09:06;3.92;;;2.50;;
22650;SDS011;11492;42.646;23.400;2023-03-16T11:11:36;7.68;;;2.60;;
22650;SDS011;11492;42.646;23.400;2023-03-16T11:14:03;6.55;;;3.00;;
22650;SDS011;11492;42.646;23.400;2023-03-16T11:19:48;2.03;;;1.60;;
22650;SDS011;11492;42.646;23.400;2023-03-16T11:22:23;3.35;;;2.22;;
22650;SDS011;11492;42.646;23.400;2023-03-16T11:25:03;3.88;;;2.22;;
22650;SDS011;11492;42.646;23.400;2023-03-16T11:32:47;2.88;;;2.22;;
22650;SDS011;11492;42.646;23.400;2023-03-16T11:46:08;8.98;;;3.25;;
22650;SDS011;11492;42.646;23.400;2023-03-16T11:56:56;6.88;;;3.63;;
22650;SDS011;11492;42.646;23.400;2023-03-16T12:01:57;4.97;;;3.08;;
22650;SDS011;11492;42.646;23.400;2023-03-16T12:04:30;5.82;;;2.50;;
22650;SDS011;11492;42.646;23.400;2023-03-16T12:12:54;4.63;;;3.20;;
22650;SDS011;11492;42.646;23.400;2023-03-16T12:15:36;4.03;;;2.72;;
22650;SDS011;11492;42.646;23.400;2023-03-16T12:18:14;4.97;;;3.35;;
22650;SDS011;11492;42.646;23.400;2023-03-16T12:20:54;3.97;;;3.00;;
22650;SDS011;11492;42.646;23.400;2023-03-16T12:24:13;5.82;;;3.30;;
22650;SDS011;11492;42.646;23.400;2023-03-16T12:26:12;8.07;;;3.38;;
22650;SDS011;11492;42.646;23.400;2023-03-16T12:28:39;4.85;;;3.13;;
22650;SDS011;11492;42.646;23.400;2023-03-16T12:39:23;8.73;;;3.53;;
22650;SDS011;11492;42.646;23.400;2023-03-16T12:47:57;6.15;;;3.60;;
22650;SDS011;11492;42.646;23.400;2023-03-16T12:50:31;13.93;;;3.70;;
22650;SDS011;11492;42.646;23.400;2023-03-16T12:52:57;5.57;;;3.67;;
22650;SDS011;11492;42.646;23.400;2023-03-16T12:55:44;5.80;;;3.72;;
22650;SDS011;11492;42.646;23.400;2023-03-16T12:58:09;5.28;;;3.75;;
22650;SDS011;11492;42.646;23.400;2023-03-16T13:00:37;9.30;;;4.07;;
22650;SDS011;11492;42.646;23.400;2023-03-16T13:03:18;5.25;;;4.10;;
22650;SDS011;11492;42.646;23.400;2023-03-16T13:05:47;6.10;;;4.18;;
22650;SDS011;11492;42.646;23.400;2023-03-16T13:08:17;6.65;;;4.10;;
22650;SDS011;11492;42.646;23.400;2023-03-16T13:11:00;7.68;;;4.50;;
22650;SDS011;11492;42.646;23.400;2023-03-16T13:13:30;5.70;;;4.53;;
22650;SDS011;11492;42.646;23.400;2023-03-16T13:16:05;9.00;;;4.93;;
22650;SDS011;11492;42.646;23.400;2023-03-16T13:18:40;6.03;;;4.25;;
22650;SDS011;11492;42.646;23.400;2023-03-16T13:21:16;5.85;;;3.85;;
22650;SDS011;11492;42.646;23.400;2023-03-16T13:26:53;23.38;;;12.93;;
22650;SDS011;11492;42.646;23.400;2023-03-16T13:29:29;10.70;;;5.70;;
22650;SDS011;11492;42.646;23.400;2023-03-16T13:31:57;9.00;;;5.93;;
22650;SDS011;11492;42.646;23.400;2023-03-16T13:34:30;7.80;;;5.63;;
22650;SDS011;11492;42.646;23.400;2023-03-16T13:36:58;9.32;;;5.28;;
22650;SDS011;11492;42.646;23.400;2023-03-16T13:39:26;9.98;;;6.13;;
22650;SDS011;11492;42.646;23.400;2023-03-16T13:41:54;9.57;;;6.30;;
22650;SDS011;11492;42.646;23.400;2023-03-16T13:44:22;10.10;;;6.63;;
22650;SDS011;11492;42.646;23.400;2023-03-16T13:46:49;12.50;;;6.47;;
22650;SDS011;11492;42.646;23.400;2023-03-16T13:49:15;12.07;;;7.38;;
22650;SDS011;11492;42.646;23.400;2023-03-16T13:51:40;12.82;;;7.22;;
22650;SDS011;11492;42.646;23.400;2023-03-16T13:54:15;7.05;;;5.13;;
22650;SDS011;11492;42.646;23.400;2023-03-16T13:56:45;11.98;;;6.57;;
22650;SDS011;11492;42.646;23.400;2023-03-16T13:59:11;9.52;;;6.00;;
22650;SDS011;11492;42.646;23.400;2023-03-16T14:01:37;8.65;;;6.53;;
22650;SDS011;11492;42.646;23.400;2023-03-16T14:04:05;10.23;;;6.70;;
22650;SDS011;11492;42.646;23.400;2023-03-16T14:06:37;10.15;;;6.85;;
22650;SDS011;11492;42.646;23.400;2023-03-16T14:09:06;9.88;;;6.57;;
22650;SDS011;11492;42.646;23.400;2023-03-16T14:11:39;17.38;;;8.07;;
22650;SDS011;11492;42.646;23.400;2023-03-16T14:14:16;15.38;;;8.45;;
22650;SDS011;11492;42.646;23.400;2023-03-16T14:16:47;10.68;;;6.72;;
22650;SDS011;11492;42.646;23.400;2023-03-16T14:19:17;10.75;;;7.20;;
22650;SDS011;11492;42.646;23.400;2023-03-16T14:21:48;12.20;;;7.07;;
22650;SDS011;11492;42.646;23.400;2023-03-16T14:26:56;17.70;;;11.30;;
22650;SDS011;11492;42.646;23.400;2023-03-16T14:29:32;14.07;;;8.90;;
22650;SDS011;11492;42.646;23.400;2023-03-16T14:31:58;14.70;;;8.20;;
22650;SDS011;11492;42.646;23.400;2023-03-16T14:34:28;11.75;;;7.85;;
22650;SDS011;11492;42.646;23.400;2023-03-16T14:37:08;13.05;;;8.48;;
22650;SDS011;11492;42.646;23.400;2023-03-16T14:39:35;12.40;;;8.95;;
22650;SDS011;11492;42.646;23.400;2023-03-16T14:42:04;12.85;;;8.10;;
22650;SDS011;11492;42.646;23.400;2023-03-16T14:44:38;16.27;;;9.35;;
22650;SDS011;11492;42.646;23.400;2023-03-16T14:47:04;15.75;;;10.18;;
22650;SDS011;11492;42.646;23.400;2023-03-16T14:49:31;16.98;;;9.48;;
22650;SDS011;11492;42.646;23.400;2023-03-16T14:52:05;12.65;;;9.20;;
22650;SDS011;11492;42.646;23.400;2023-03-16T14:54:33;17.73;;;10.35;;
22650;SDS011;11492;42.646;23.400;2023-03-16T14:57:02;12.30;;;8.85;;
22650;SDS011;11492;42.646;23.400;2023-03-16T14:59:30;13.55;;;8.95;;
22650;SDS011;11492;42.646;23.400;2023-03-16T15:01:56;16.02;;;9.60;;
22650;SDS011;11492;42.646;23.400;2023-03-16T15:04:27;14.07;;;8.98;;
22650;SDS011;11492;42.646;23.400;2023-03-16T15:06:56;14.88;;;10.13;;
22650;SDS011;11492;42.646;23.400;2023-03-16T15:09:27;15.93;;;9.95;;
22650;SDS011;11492;42.646;23.400;2023-03-16T15:11:58;17.13;;;10.50;;
22650;SDS011;11492;42.646;23.400;2023-03-16T15:14:26;15.82;;;9.38;;
22650;SDS011;11492;42.646;23.400;2023-03-16T15:17:10;16.63;;;7.70;;
22650;SDS011;11492;42.646;23.400;2023-03-16T15:19:36;21.45;;;10.90;;
22650;SDS011;11492;42.646;23.400;2023-03-16T15:22:02;15.75;;;10.07;;
22650;SDS011;11492;42.646;23.400;2023-03-16T15:24:28;10.90;;;7.10;;
22650;SDS011;11492;42.646;23.400;2023-03-16T15:26:56;13.50;;;9.32;;
22650;SDS011;11492;42.646;23.400;2023-03-16T15:29:21;18.38;;;10.80;;
22650;SDS011;11492;42.646;23.400;2023-03-16T15:31:47;18.15;;;10.80;;
22650;SDS011;11492;42.646;23.400;2023-03-16T15:34:12;18.23;;;11.60;;
22650;SDS011;11492;42.646;23.400;2023-03-16T15:36:38;17.90;;;11.15;;
22650;SDS011;11492;42.646;23.400;2023-03-16T15:39:03;15.55;;;9.25;;
22650;SDS011;11492;42.646;23.400;2023-03-16T15:41:29;15.35;;;10.32;;
22650;SDS011;11492;42.646;23.400;2023-03-16T15:43:55;15.25;;;10.23;;
22650;SDS011;11492;42.646;23.400;2023-03-16T15:46:25;16.98;;;9.77;;
22650;SDS011;11492;42.646;23.400;2023-03-16T15:48:51;14.85;;;10.10;;
22650;SDS011;11492;42.646;23.400;2023-03-16T15:53:51;16.88;;;11.00;;
22650;SDS011;11492;42.646;23.400;2023-03-16T15:56:20;16.67;;;10.75;;
22650;SDS011;11492;42.646;23.400;2023-03-16T15:58:50;20.33;;;11.52;;